Time;durP1;ratioP1;P1;durP2;ratioP2;P2;SDS_P1;SDS_P2;PMS_P1;PMS_P2;Temp;Humidity;BMP_temperature;BMP_pressure;BME280_temperature;BME280_humidity;BME280_pressure;Samples;Min_cycle;Max_cycle;Signal;HPM_P1;HPM_P2
2023/06/14 00:02:16;;;;;;;6.70;2.50;;;;;;;;;;5104353;28;20036;-75
2023/06/14 00:04:48;;;;;;;6.72;2.65;;;;;;;;;;5106023;28;20448;-75
2023/06/14 00:07:23;;;;;;;8.23;2.63;;;;;;;;;;5104538;28;20055;-75
2023/06/14 00:09:53;;;;;;;8.07;2.53;;;;;;;;;;5103563;28;20048;-75
2023/06/14 00:12:26;;;;;;;7.55;2.63;;;;;;;;;;5106229;28;20044;-75
2023/06/14 00:14:57;;;;;;;8.90;3.58;;;;;;;;;;5103443;28;20042;-75
2023/06/14 00:17:36;;;;;;;7.18;3.33;;;;;;;;;;5103762;28;20043;-75
2023/06/14 00:20:06;;;;;;;5.70;2.88;;;;;;;;;;5106080;28;20047;-74
2023/06/14 00:22:38;;;;;;;6.93;2.40;;;;;;;;;;5103843;28;20514;-75
2023/06/14 00:25:09;;;;;;;5.68;2.47;;;;;;;;;;5105591;28;20414;-75
2023/06/14 00:27:57;;;;;;;9.57;2.70;;;;;;;;;;5105285;28;20047;-75
2023/06/14 00:30:30;;;;;;;6.80;2.80;;;;;;;;;;5091013;28;20051;-74
2023/06/14 00:33:02;;;;;;;8.32;2.83;;;;;;;;;;5094318;28;20035;-74
2023/06/14 00:35:33;;;;;;;7.30;3.00;;;;;;;;;;5100815;28;20040;-73
2023/06/14 00:38:05;;;;;;;7.93;2.47;;;;;;;;;;5115279;28;20035;-75
2023/06/14 00:40:35;;;;;;;6.70;2.65;;;;;;;;;;5105937;28;20490;-74
2023/06/14 00:43:06;;;;;;;9.48;2.55;;;;;;;;;;5106108;28;20048;-74
2023/06/14 00:45:38;;;;;;;7.70;2.40;;;;;;;;;;5085737;28;20047;-74
2023/06/14 00:48:09;;;;;;;7.25;1.95;;;;;;;;;;5106187;28;20039;-75
2023/06/14 00:50:41;;;;;;;5.53;2.33;;;;;;;;;;5105595;28;20747;-75
2023/06/14 00:53:15;;;;;;;7.80;2.00;;;;;;;;;;5105125;28;20047;-75
2023/06/14 00:55:47;;;;;;;7.60;2.63;;;;;;;;;;5086058;28;20055;-75
2023/06/14 00:58:18;;;;;;;4.82;2.22;;;;;;;;;;5104398;28;20517;-75
2023/06/14 01:00:48;;;;;;;7.53;2.25;;;;;;;;;;5105308;28;20047;-74
2023/06/14 01:03:21;;;;;;;6.32;2.47;;;;;;;;;;5106488;28;20043;-75
2023/06/14 01:06:02;;;;;;;5.43;2.35;;;;;;;;;;5106526;28;20047;-74
2023/06/14 01:08:47;;;;;;;7.85;2.13;;;;;;;;;;5087132;28;20051;-75
2023/06/14 01:11:28;;;;;;;7.93;2.72;;;;;;;;;;5087146;28;20059;-75
2023/06/14 01:14:03;;;;;;;7.43;2.70;;;;;;;;;;5105768;28;20047;-75
2023/06/14 01:16:36;;;;;;;9.93;2.70;;;;;;;;;;5086810;28;20081;-75
2023/06/14 01:19:12;;;;;;;7.53;3.50;;;;;;;;;;5105973;28;20639;-75
2023/06/14 01:21:42;;;;;;;7.70;3.22;;;;;;;;;;5086261;28;20059;-75
2023/06/14 01:24:16;;;;;;;4.22;2.70;;;;;;;;;;5087157;28;20047;-75
2023/06/14 01:26:51;;;;;;;7.72;3.05;;;;;;;;;;5086737;28;20054;-75
2023/06/14 01:29:27;;;;;;;7.03;3.45;;;;;;;;;;5105640;28;20035;-75
2023/06/14 01:31:57;;;;;;;;;;;;;;;;;;5087224;28;20051;-75
2023/06/14 01:34:32;;;;;;;9.73;3.17;;;;;;;;;;5105820;28;19931;-75
2023/06/14 01:37:04;;;;;;;7.78;2.95;;;;;;;;;;5105829;28;20051;-75
2023/06/14 01:39:35;;;;;;;4.88;2.88;;;;;;;;;;5106006;28;20039;-74
2023/06/14 01:42:06;;;;;;;7.05;3.22;;;;;;;;;;5086726;28;20059;-75
2023/06/14 01:44:39;;;;;;;7.57;3.88;;;;;;;;;;5105199;28;20054;-75
2023/06/14 01:47:11;;;;;;;8.95;3.63;;;;;;;;;;5105244;28;20044;-73
2023/06/14 01:49:42;;;;;;;8.15;3.33;;;;;;;;;;5086177;28;20063;-73
2023/06/14 01:52:13;;;;;;;9.15;3.40;;;;;;;;;;5085995;28;20062;-73
2023/06/14 01:54:44;;;;;;;6.47;3.13;;;;;;;;;;5105368;28;20047;-73
2023/06/14 01:57:15;;;;;;;9.63;3.22;;;;;;;;;;5105309;28;20051;-73
2023/06/14 01:59:48;;;;;;;5.82;2.90;;;;;;;;;;5087062;28;20051;-73
2023/06/14 02:02:18;;;;;;;9.55;3.20;;;;;;;;;;5085927;28;20060;-73
2023/06/14 02:04:50;;;;;;;10.35;3.22;;;;;;;;;;5105351;28;20054;-73
2023/06/14 02:07:20;;;;;;;6.85;2.58;;;;;;;;;;5086346;28;20417;-73
2023/06/14 02:09:52;;;;;;;7.40;2.90;;;;;;;;;;5086666;28;20051;-74
2023/06/14 02:12:23;;;;;;;8.75;2.63;;;;;;;;;;5086675;28;20074;-74
2023/06/14 02:14:56;;;;;;;5.80;2.42;;;;;;;;;;5105785;28;20044;-74
2023/06/14 02:17:27;;;;;;;8.40;2.40;;;;;;;;;;5087081;28;20486;-74
2023/06/14 02:19:57;;;;;;;5.43;2.10;;;;;;;;;;5085862;28;20051;-74
2023/06/14 02:22:27;;;;;;;5.57;2.17;;;;;;;;;;5085975;28;20051;-74
2023/06/14 02:24:58;;;;;;;5.00;2.05;;;;;;;;;;5086472;28;20051;-74
2023/06/14 02:27:31;;;;;;;6.45;2.60;;;;;;;;;;5087321;28;20054;-74
2023/06/14 02:30:01;;;;;;;5.35;1.90;;;;;;;;;;5105205;28;20048;-74
2023/06/14 02:32:36;;;;;;;8.52;2.10;;;;;;;;;;5087499;28;20051;-74
2023/06/14 02:35:07;;;;;;;6.45;1.83;;;;;;;;;;5104726;28;20039;-74
2023/06/14 02:37:38;;;;;;;7.03;1.98;;;;;;;;;;5104783;28;20051;-74
2023/06/14 02:40:10;;;;;;;6.13;2.05;;;;;;;;;;5104692;28;20510;-74
2023/06/14 02:42:40;;;;;;;4.63;2.03;;;;;;;;;;5104940;28;20510;-74
2023/06/14 02:45:11;;;;;;;4.85;1.90;;;;;;;;;;5085815;28;20063;-75
2023/06/14 02:47:42;;;;;;;10.27;2.60;;;;;;;;;;5085614;28;20052;-74
2023/06/14 02:50:14;;;;;;;7.95;2.60;;;;;;;;;;5103728;28;20094;-73
2023/06/14 02:52:45;;;;;;;7.85;2.67;;;;;;;;;;5085227;28;20074;-73
2023/06/14 02:55:15;;;;;;;6.65;4.20;;;;;;;;;;5088940;28;20056;-73
2023/06/14 02:57:48;;;;;;;13.02;4.28;;;;;;;;;;5089276;28;20055;-73
2023/06/14 03:00:20;;;;;;;6.93;2.88;;;;;;;;;;5090175;28;20051;-75
2023/06/14 03:02:52;;;;;;;9.90;2.75;;;;;;;;;;5090342;28;20425;-73
2023/06/14 03:05:22;;;;;;;7.03;3.80;;;;;;;;;;5089892;28;20051;-74
2023/06/14 03:07:53;;;;;;;8.25;3.58;;;;;;;;;;5073113;28;20524;-75
2023/06/14 03:10:25;;;;;;;13.10;3.72;;;;;;;;;;5108181;28;20035;-73
2023/06/14 03:12:57;;;;;;;8.30;2.15;;;;;;;;;;5089236;28;20070;-73
2023/06/14 03:15:29;;;;;;;3.67;1.70;;;;;;;;;;5089402;28;20039;-74
2023/06/14 03:18:00;;;;;;;14.82;2.30;;;;;;;;;;5108013;28;20036;-74
2023/06/14 03:20:32;;;;;;;4.00;2.13;;;;;;;;;;5088896;28;20062;-74
2023/06/14 03:23:04;;;;;;;5.63;2.22;;;;;;;;;;5108853;28;20074;-74
2023/06/14 03:25:38;;;;;;;7.75;2.65;;;;;;;;;;5088895;28;20506;-73
2023/06/14 03:28:09;;;;;;;10.32;2.55;;;;;;;;;;5088820;28;20047;-75
2023/06/14 03:30:41;;;;;;;6.90;2.70;;;;;;;;;;5089201;28;20044;-74
2023/06/14 03:33:12;;;;;;;6.50;2.30;;;;;;;;;;5088687;28;20425;-74
2023/06/14 03:35:42;;;;;;;8.48;2.60;;;;;;;;;;5088427;28;20051;-74
2023/06/14 03:38:16;;;;;;;5.88;2.88;;;;;;;;;;5088853;28;20059;-73
2023/06/14 03:40:48;;;;;;;7.18;2.70;;;;;;;;;;5089354;28;20525;-73
2023/06/14 03:43:19;;;;;;;4.95;2.80;;;;;;;;;;5088788;28;20054;-74
2023/06/14 03:45:50;;;;;;;11.60;2.78;;;;;;;;;;5107812;28;20516;-74
2023/06/14 03:48:24;;;;;;;3.88;2.25;;;;;;;;;;5088842;28;20063;-74
2023/06/14 03:50:55;;;;;;;5.95;2.10;;;;;;;;;;5088717;28;20403;-74
2023/06/14 03:53:31;;;;;;;7.60;2.70;;;;;;;;;;5072834;28;20051;-74
2023/06/14 03:56:01;;;;;;;8.80;3.25;;;;;;;;;;5088124;28;20052;-75
2023/06/14 03:58:39;;;;;;;9.88;2.30;;;;;;;;;;5088676;28;20047;-74
2023/06/14 04:01:12;;;;;;;10.18;3.00;;;;;;;;;;5088136;28;20048;-75
2023/06/14 04:03:43;;;;;;;5.78;2.38;;;;;;;;;;5088568;28;20066;-75
2023/06/14 04:06:19;;;;;;;6.32;2.17;;;;;;;;;;5087288;28;20173;-75
2023/06/14 04:08:56;;;;;;;6.38;2.28;;;;;;;;;;5105951;28;20088;-76
2023/06/14 04:11:26;;;;;;;6.13;1.95;;;;;;;;;;5088047;28;20059;-74
2023/06/14 04:14:00;;;;;;;3.78;1.75;;;;;;;;;;5088492;28;20051;-75
2023/06/14 04:16:33;;;;;;;4.82;2.22;;;;;;;;;;5087628;28;20422;-75
2023/06/14 04:19:04;;;;;;;6.22;2.33;;;;;;;;;;5088131;28;20047;-75
2023/06/14 04:21:34;;;;;;;;;;;;;;;;;;5088001;28;20058;-75
2023/06/14 04:24:13;;;;;;;5.38;1.95;;;;;;;;;;5087938;28;19927;-75
2023/06/14 04:26:51;;;;;;;8.73;2.10;;;;;;;;;;5087298;28;20048;-74
2023/06/14 04:29:24;;;;;;;5.13;1.58;;;;;;;;;;5106778;28;20031;-75
2023/06/14 04:32:01;;;;;;;13.80;2.47;;;;;;;;;;5087578;28;20048;-75
2023/06/14 04:34:33;;;;;;;5.57;1.70;;;;;;;;;;5087974;28;20886;-75
2023/06/14 04:37:08;;;;;;;4.93;1.80;;;;;;;;;;5087217;28;20079;-76
2023/06/14 04:39:42;;;;;;;4.28;1.40;;;;;;;;;;5087502;28;20422;-75
2023/06/14 04:42:14;;;;;;;6.70;2.28;;;;;;;;;;5106281;28;20406;-75
2023/06/14 04:44:47;;;;;;;8.52;2.10;;;;;;;;;;5087873;28;20056;-74
2023/06/14 04:47:18;;;;;;;5.85;2.08;;;;;;;;;;5106533;28;20047;-75
2023/06/14 04:49:50;;;;;;;6.53;1.88;;;;;;;;;;5087371;28;20048;-75
2023/06/14 04:52:22;;;;;;;9.13;2.53;;;;;;;;;;5087212;28;20763;-75
2023/06/14 04:54:56;;;;;;;9.10;2.13;;;;;;;;;;5087443;28;20055;-75
2023/06/14 04:57:28;;;;;;;5.30;2.03;;;;;;;;;;5086887;28;20055;-75
2023/06/14 05:00:00;;;;;;;8.27;2.20;;;;;;;;;;5087221;28;20434;-75
2023/06/14 05:02:30;;;;;;;9.63;2.28;;;;;;;;;;5087546;28;20048;-74
2023/06/14 05:05:02;;;;;;;6.78;2.13;;;;;;;;;;5071223;28;20418;-74
2023/06/14 05:07:35;;;;;;;6.82;2.22;;;;;;;;;;5087304;28;20134;-75
2023/06/14 05:10:08;;;;;;;7.55;2.30;;;;;;;;;;5087215;28;20059;-74
2023/06/14 05:12:40;;;;;;;5.63;1.92;;;;;;;;;;5105921;28;20043;-74
2023/06/14 05:15:13;;;;;;;7.13;1.95;;;;;;;;;;5087095;28;20059;-75
2023/06/14 05:17:54;;;;;;;7.80;3.20;;;;;;;;;;5106047;28;20040;-74
2023/06/14 05:20:26;;;;;;;9.35;3.67;;;;;;;;;;5106151;28;20047;-75
2023/06/14 05:22:56;;;;;;;8.48;2.97;;;;;;;;;;5106001;28;20536;-75
2023/06/14 05:25:29;;;;;;;6.40;2.60;;;;;;;;;;5104935;28;20055;-74
2023/06/14 05:28:00;;;;;;;10.10;3.15;;;;;;;;;;5105765;28;20043;-75
2023/06/14 05:30:33;;;;;;;5.20;1.98;;;;;;;;;;5105372;28;20055;-74
2023/06/14 05:33:03;;;;;;;8.75;1.90;;;;;;;;;;5105988;28;20051;-75
2023/06/14 05:35:34;;;;;;;4.80;1.95;;;;;;;;;;5106065;28;20043;-75
2023/06/14 05:38:07;;;;;;;3.70;1.83;;;;;;;;;;5105621;28;20052;-74
2023/06/14 05:40:38;;;;;;;13.45;4.03;;;;;;;;;;5105255;28;20046;-74
2023/06/14 05:43:07;;;;;;;;;;;;;;;;;;5106016;28;20054;-74
2023/06/14 05:45:38;;;;;;;7.72;2.13;;;;;;;;;;5105430;28;19920;-75
2023/06/14 05:48:08;;;;;;;5.00;2.20;;;;;;;;;;5086634;28;20510;-74
2023/06/14 05:50:39;;;;;;;5.50;2.45;;;;;;;;;;5105096;28;20044;-76
2023/06/14 05:53:09;;;;;;;5.03;2.25;;;;;;;;;;5087455;28;20043;-74
2023/06/14 05:55:40;;;;;;;9.90;2.35;;;;;;;;;;5104868;28;20055;-75
2023/06/14 05:58:10;;;;;;;4.25;2.00;;;;;;;;;;5105083;28;20055;-74
2023/06/14 06:00:41;;;;;;;6.53;1.98;;;;;;;;;;5104914;28;20044;-74
2023/06/14 06:03:12;;;;;;;7.10;2.38;;;;;;;;;;5105153;28;20043;-75
2023/06/14 06:05:43;;;;;;;6.72;2.20;;;;;;;;;;5105486;28;20048;-74
2023/06/14 06:08:16;;;;;;;8.30;2.50;;;;;;;;;;5105863;28;20047;-74
2023/06/14 06:10:47;;;;;;;8.05;2.40;;;;;;;;;;5105256;28;20066;-75
2023/06/14 06:13:17;;;;;;;7.20;2.60;;;;;;;;;;5086156;28;20059;-75
2023/06/14 06:15:47;;;;;;;;;;;;;;;;;;5105574;28;20047;-76
2023/06/14 06:18:17;;;;;;;5.35;2.03;;;;;;;;;;5104767;28;19924;-74
2023/06/14 06:20:50;;;;;;;8.52;2.22;;;;;;;;;;5105402;28;20036;-74
2023/06/14 06:23:20;;;;;;;10.25;2.35;;;;;;;;;;5105339;28;20047;-75
2023/06/14 06:25:50;;;;;;;6.65;2.40;;;;;;;;;;5105103;28;20043;-74
2023/06/14 06:28:20;;;;;;;5.43;2.20;;;;;;;;;;5087292;28;20054;-75
2023/06/14 06:30:50;;;;;;;;;;;;;;;;;;5091447;28;20054;-75
2023/06/14 06:33:22;;;;;;;8.43;3.75;;;;;;;;;;5109109;28;19931;-75
2023/06/14 06:35:53;;;;;;;12.80;4.95;;;;;;;;;;5109028;28;20048;-75
2023/06/14 06:38:23;;;;;;;8.93;3.47;;;;;;;;;;5108495;28;20445;-74
2023/06/14 06:40:54;;;;;;;8.70;3.20;;;;;;;;;;5108662;28;20046;-74
2023/06/14 06:43:25;;;;;;;8.52;3.35;;;;;;;;;;5109336;28;20059;-75
2023/06/14 06:45:58;;;;;;;9.48;3.45;;;;;;;;;;5089546;28;20867;-74
2023/06/14 06:48:28;;;;;;;8.93;3.67;;;;;;;;;;5108668;28;20054;-74
2023/06/14 06:50:58;;;;;;;;;;;;;;;;;;5108497;28;20043;-75
2023/06/14 06:53:28;;;;;;;6.63;3.00;;;;;;;;;;5108435;28;20306;-74
2023/06/14 06:56:10;;;;;;;5.68;3.13;;;;;;;;;;5108094;28;20043;-74
2023/06/14 06:58:41;;;;;;;11.40;3.60;;;;;;;;;;5090403;28;20048;-75
2023/06/14 07:01:13;;;;;;;7.13;3.47;;;;;;;;;;5090865;28;20047;-74
2023/06/14 07:03:43;;;;;;;8.93;3.63;;;;;;;;;;5108473;28;20048;-75
2023/06/14 07:06:14;;;;;;;6.30;3.42;;;;;;;;;;5090352;28;20055;-74
2023/06/14 07:08:44;;;;;;;10.45;3.15;;;;;;;;;;5108267;28;20047;-75
2023/06/14 07:11:15;;;;;;;7.22;3.33;;;;;;;;;;5108250;28;20047;-75
2023/06/14 07:13:45;;;;;;;;;;;;;;;;;;5108495;28;20417;-75
2023/06/14 07:16:16;;;;;;;7.18;3.08;;;;;;;;;;5108859;28;20758;-75
2023/06/14 07:18:48;;;;;;;8.73;3.42;;;;;;;;;;5107805;28;20052;-75
2023/06/14 07:21:18;;;;;;;6.03;2.92;;;;;;;;;;5107933;28;20406;-74
2023/06/14 07:23:47;;;;;;;;;;;;;;;;;;5090636;28;20051;-74
2023/06/14 07:26:18;;;;;;;9.75;3.42;;;;;;;;;;5107331;28;21062;-75
2023/06/14 07:28:48;;;;;;;;;;;;;;;;;;5108661;28;20044;-74
2023/06/14 07:31:19;;;;;;;6.05;3.30;;;;;;;;;;5106276;28;19930;-74
2023/06/14 07:33:49;;;;;;;6.95;3.47;;;;;;;;;;5107467;28;20048;-74
2023/06/14 07:36:20;;;;;;;6.25;3.30;;;;;;;;;;5089510;28;20059;-74
2023/06/14 07:38:51;;;;;;;6.45;3.35;;;;;;;;;;5089867;28;20048;-74
2023/06/14 07:41:22;;;;;;;7.88;3.30;;;;;;;;;;5107695;28;20044;-75
2023/06/14 07:43:52;;;;;;;7.65;3.58;;;;;;;;;;5107944;28;20394;-74
2023/06/14 07:46:22;;;;;;;4.68;2.92;;;;;;;;;;5107598;28;20044;-74
2023/06/14 07:48:52;;;;;;;8.70;3.22;;;;;;;;;;5107768;28;20043;-74
2023/06/14 07:51:23;;;;;;;10.35;3.35;;;;;;;;;;5107229;28;20036;-74
2023/06/14 07:53:54;;;;;;;10.43;3.30;;;;;;;;;;5107333;28;20044;-74
2023/06/14 07:56:25;;;;;;;10.73;3.25;;;;;;;;;;5107200;28;20052;-74
2023/06/14 07:58:55;;;;;;;27.85;3.97;;;;;;;;;;5107716;28;20055;-74
2023/06/14 08:01:27;;;;;;;15.48;3.88;;;;;;;;;;5088673;28;20055;-74
2023/06/14 08:03:58;;;;;;;7.47;3.55;;;;;;;;;;5107461;28;20050;-74
2023/06/14 08:06:28;;;;;;;12.60;3.42;;;;;;;;;;5107430;28;20055;-74
2023/06/14 08:08:59;;;;;;;8.40;3.33;;;;;;;;;;5107209;28;20066;-74
2023/06/14 08:11:28;;;;;;;6.07;3.03;;;;;;;;;;5107247;28;20043;-74
2023/06/14 08:13:59;;;;;;;10.27;2.83;;;;;;;;;;5106782;28;20048;-74
2023/06/14 08:16:31;;;;;;;12.10;3.47;;;;;;;;;;5106218;28;20529;-74
2023/06/14 08:19:01;;;;;;;6.22;3.22;;;;;;;;;;5107005;28;20059;-75
2023/06/14 08:21:33;;;;;;;5.00;3.00;;;;;;;;;;5106548;28;20052;-74
2023/06/14 08:24:04;;;;;;;9.77;3.08;;;;;;;;;;5106985;28;20047;-74
2023/06/14 08:26:36;;;;;;;7.40;3.10;;;;;;;;;;5106180;28;20406;-74
2023/06/14 08:29:07;;;;;;;7.10;2.72;;;;;;;;;;5106914;28;20509;-75
2023/06/14 08:31:36;;;;;;;;;;;;;;;;;;5107121;28;20054;-75
2023/06/14 08:34:07;;;;;;;7.05;3.28;;;;;;;;;;5106060;28;19924;-75
2023/06/14 08:36:37;;;;;;;9.40;3.80;;;;;;;;;;5107402;28;20056;-75
2023/06/14 08:39:09;;;;;;;5.63;3.10;;;;;;;;;;5106729;28;20052;-75
2023/06/14 08:41:40;;;;;;;4.68;2.83;;;;;;;;;;5106200;28;20050;-76
2023/06/14 08:44:10;;;;;;;9.07;3.78;;;;;;;;;;5087248;28;20059;-75
2023/06/14 08:46:42;;;;;;;5.05;3.17;;;;;;;;;;5106128;28;20050;-75
2023/06/14 08:49:14;;;;;;;10.23;3.17;;;;;;;;;;5106263;28;20047;-75
2023/06/14 08:51:44;;;;;;;6.00;3.30;;;;;;;;;;5106595;28;20398;-75
2023/06/14 08:54:15;;;;;;;9.25;4.15;;;;;;;;;;5106655;28;20058;-75
2023/06/14 08:56:48;;;;;;;7.63;3.60;;;;;;;;;;5106001;28;20522;-75
2023/06/14 08:59:21;;;;;;;11.27;3.63;;;;;;;;;;5105886;28;20062;-75
2023/06/14 09:01:52;;;;;;;8.90;3.90;;;;;;;;;;5106067;28;20055;-75
2023/06/14 09:04:41;;;;;;;9.10;4.32;;;;;;;;;;5105071;28;20051;-75
2023/06/14 09:07:12;;;;;;;;;;;;;;;;;;5106288;28;20047;-75
2023/06/14 09:09:44;;;;;;;7.05;4.07;;;;;;;;;;5105997;28;19930;-75
2023/06/14 09:12:34;;;;;;;6.43;3.53;;;;;;;;;;5105878;28;20406;-75
2023/06/14 09:15:05;;;;;;;;;;;;;;;;;;5106303;28;20047;-75
2023/06/14 09:17:37;;;;;;;6.10;3.53;;;;;;;;;;5105984;28;19931;-75
2023/06/14 09:20:10;;;;;;;8.52;4.32;;;;;;;;;;5105194;28;20043;-75
2023/06/14 09:22:41;;;;;;;6.55;4.30;;;;;;;;;;5105877;28;20043;-75
2023/06/14 09:25:18;;;;;;;8.07;4.07;;;;;;;;;;5105982;28;20047;-75
2023/06/14 09:28:11;;;;;;;10.90;4.68;;;;;;;;;;5105975;28;20054;-75
2023/06/14 09:30:41;;;;;;;11.95;4.88;;;;;;;;;;5105325;28;20039;-75
2023/06/14 09:33:18;;;;;;;8.48;4.53;;;;;;;;;;5085937;28;20059;-75
2023/06/14 09:35:52;;;;;;;8.73;4.10;;;;;;;;;;5105283;28;20047;-75
2023/06/14 09:38:26;;;;;;;9.20;4.28;;;;;;;;;;5105423;28;20052;-76
2023/06/14 09:40:59;;;;;;;9.52;4.38;;;;;;;;;;5105267;28;20422;-75
2023/06/14 09:43:30;;;;;;;10.80;4.38;;;;;;;;;;5105513;28;20035;-75
2023/06/14 09:46:01;;;;;;;7.57;4.18;;;;;;;;;;5105674;28;20051;-76
2023/06/14 09:48:32;;;;;;;8.55;4.63;;;;;;;;;;5105486;28;20520;-76
2023/06/14 09:51:05;;;;;;;10.05;4.55;;;;;;;;;;5105503;28;20048;-77
2023/06/14 09:53:36;;;;;;;11.05;4.53;;;;;;;;;;5105457;28;20387;-77
2023/06/14 09:56:08;;;;;;;6.45;3.67;;;;;;;;;;5105129;28;20066;-75
2023/06/14 09:58:41;;;;;;;10.82;4.78;;;;;;;;;;5086785;28;20070;-75
2023/06/14 10:01:19;;;;;;;15.55;5.25;;;;;;;;;;5105788;28;20048;-75
2023/06/14 10:03:52;;;;;;;10.13;4.47;;;;;;;;;;5106655;28;20055;-75
2023/06/14 10:06:39;;;;;;;9.50;4.72;;;;;;;;;;5109255;28;20546;-75
2023/06/14 10:09:12;;;;;;;9.10;4.88;;;;;;;;;;5109078;28;20043;-76
2023/06/14 10:11:46;;;;;;;9.02;5.47;;;;;;;;;;5109118;28;20526;-75
2023/06/14 10:14:18;;;;;;;10.48;4.80;;;;;;;;;;5109135;28;20036;-76
2023/06/14 10:17:11;;;;;;;7.95;3.53;;;;;;;;;;5109413;28;20047;-78
2023/06/14 10:19:52;;;;;;;9.45;4.68;;;;;;;;;;5109564;28;20043;-75
2023/06/14 10:22:38;;;;;;;11.57;5.25;;;;;;;;;;5108840;28;20051;-74
2023/06/14 10:25:13;;;;;;;11.70;4.90;;;;;;;;;;5108919;28;20465;-75
2023/06/14 10:27:46;;;;;;;9.77;4.07;;;;;;;;;;5108713;28;20410;-75
2023/06/14 10:30:17;;;;;;;8.50;5.35;;;;;;;;;;5109034;28;20406;-74
2023/06/14 10:33:10;;;;;;;10.70;5.22;;;;;;;;;;5109600;28;20040;-75
2023/06/14 10:35:40;;;;;;;9.07;3.70;;;;;;;;;;5091413;28;20047;-74
2023/06/14 10:38:14;;;;;;;;;;;;;;;;;;5109306;28;20070;-74
2023/06/14 10:40:54;;;;;;;8.07;4.20;;;;;;;;;;5109161;28;19923;-74
2023/06/14 10:43:24;;;;;;;5.53;3.80;;;;;;;;;;5089605;28;20438;-75
2023/06/14 10:46:17;;;;;;;8.75;3.90;;;;;;;;;;5108676;28;20043;-74
2023/06/14 10:48:49;;;;;;;5.10;3.35;;;;;;;;;;5108561;28;20133;-75
2023/06/14 10:51:22;;;;;;;7.40;3.13;;;;;;;;;;5109197;28;20047;-76
2023/06/14 10:53:52;;;;;;;8.55;3.53;;;;;;;;;;5108377;28;20058;-75
2023/06/14 10:56:30;;;;;;;8.35;2.97;;;;;;;;;;5089367;28;20052;-75
2023/06/14 10:59:02;;;;;;;6.50;3.60;;;;;;;;;;5107134;28;20043;-75
2023/06/14 11:01:43;;;;;;;7.53;4.95;;;;;;;;;;5106896;28;20086;-75
2023/06/14 11:04:13;;;;;;;7.78;5.53;;;;;;;;;;5106867;28;20050;-75
2023/06/14 11:06:42;;;;;;;;;;;;;;;;;;5107600;28;20098;-75
2023/06/14 11:09:53;;;;;;;10.10;4.97;;;;;;;;;;5087944;28;19920;-75
2023/06/14 11:12:27;;;;;;;10.65;5.10;;;;;;;;;;5106665;28;20043;-75
2023/06/14 11:14:58;;;;;;;10.40;5.60;;;;;;;;;;5105967;28;20547;-76
2023/06/14 11:17:29;;;;;;;14.02;8.90;;;;;;;;;;5106476;28;20058;-75
2023/06/14 11:20:18;;;;;;;19.90;6.95;;;;;;;;;;5106864;28;20059;-75
2023/06/14 11:22:53;;;;;;;12.80;6.18;;;;;;;;;;5106899;28;20044;-75
2023/06/14 11:25:24;;;;;;;9.57;6.13;;;;;;;;;;5107155;28;20035;-75
2023/06/14 11:27:56;;;;;;;9.75;5.85;;;;;;;;;;5106609;28;20477;-74
2023/06/14 11:30:26;;;;;;;11.35;6.38;;;;;;;;;;5106984;28;20047;-75
2023/06/14 11:32:58;;;;;;;13.45;5.55;;;;;;;;;;5088195;28;20058;-74
2023/06/14 11:35:29;;;;;;;12.68;5.32;;;;;;;;;;5106660;28;20040;-75
2023/06/14 11:38:00;;;;;;;11.70;5.03;;;;;;;;;;5089025;28;20054;-75
2023/06/14 11:40:30;;;;;;;7.97;4.45;;;;;;;;;;5106366;28;20051;-75
2023/06/14 11:43:04;;;;;;;10.85;6.13;;;;;;;;;;5107194;28;20051;-77
2023/06/14 11:45:35;;;;;;;13.70;6.85;;;;;;;;;;5106640;28;20044;-75
2023/06/14 11:48:06;;;;;;;9.82;6.35;;;;;;;;;;5106192;28;20051;-74
2023/06/14 11:50:38;;;;;;;11.30;6.55;;;;;;;;;;5088835;28;20047;-75
2023/06/14 11:53:10;;;;;;;9.85;6.07;;;;;;;;;;5105901;28;20043;-75
2023/06/14 11:55:41;;;;;;;13.60;6.82;;;;;;;;;;5106519;28;20058;-74
2023/06/14 11:58:11;;;;;;;10.95;6.13;;;;;;;;;;5005115;28;2897608;-75
2023/06/14 12:00:43;;;;;;;9.45;5.63;;;;;;;;;;5107140;28;20394;-75
2023/06/14 12:03:14;;;;;;;15.80;7.60;;;;;;;;;;5107507;28;20059;-75
2023/06/14 12:05:44;;;;;;;9.63;4.53;;;;;;;;;;5106652;28;20054;-75
2023/06/14 12:08:17;;;;;;;6.93;4.43;;;;;;;;;;5107066;28;20051;-75
2023/06/14 12:10:52;;;;;;;7.30;4.22;;;;;;;;;;5107522;28;20422;-75
2023/06/14 12:13:23;;;;;;;8.32;4.28;;;;;;;;;;5107223;28;20035;-74
2023/06/14 12:15:57;;;;;;;6.72;3.92;;;;;;;;;;5106779;28;20056;-74
2023/06/14 12:18:39;;;;;;;5.78;3.97;;;;;;;;;;5107705;28;20043;-75
2023/06/14 12:21:10;;;;;;;8.23;3.85;;;;;;;;;;5106862;28;20043;-74
2023/06/14 12:23:51;;;;;;;8.93;3.22;;;;;;;;;;5106430;28;20506;-74
2023/06/14 12:26:21;;;;;;;24.83;3.80;;;;;;;;;;5105847;28;20051;-74
2023/06/14 12:28:52;;;;;;;6.03;3.47;;;;;;;;;;5087904;28;20059;-74
2023/06/14 12:31:23;;;;;;;6.78;3.22;;;;;;;;;;5106949;28;21144;-75
2023/06/14 12:33:54;;;;;;;7.85;3.42;;;;;;;;;;5107002;28;20054;-77
2023/06/14 12:36:26;;;;;;;5.63;3.30;;;;;;;;;;5106411;28;20047;-77
2023/06/14 12:38:56;;;;;;;3.85;2.95;;;;;;;;;;5106405;28;20282;-75
2023/06/14 12:41:27;;;;;;;5.32;2.75;;;;;;;;;;5106382;28;20047;-74
2023/06/14 12:43:59;;;;;;;5.75;3.13;;;;;;;;;;5106767;28;20071;-75
2023/06/14 12:46:31;;;;;;;4.78;2.65;;;;;;;;;;5106627;28;20050;-75
2023/06/14 12:49:09;;;;;;;6.03;3.83;;;;;;;;;;5106247;28;20047;-75
2023/06/14 12:51:40;;;;;;;7.38;3.65;;;;;;;;;;5106129;28;20039;-75
2023/06/14 12:54:12;;;;;;;8.82;3.25;;;;;;;;;;5087923;28;20056;-74
2023/06/14 12:56:44;;;;;;;4.47;2.83;;;;;;;;;;5105851;28;20051;-75
2023/06/14 12:59:14;;;;;;;4.75;2.58;;;;;;;;;;5106406;28;20047;-75
2023/06/14 13:01:45;;;;;;;5.47;3.00;;;;;;;;;;5106181;28;20403;-75
2023/06/14 13:04:15;;;;;;;7.47;2.50;;;;;;;;;;5106494;28;20044;-75
2023/06/14 13:06:48;;;;;;;5.72;2.60;;;;;;;;;;5106522;28;20052;-75
2023/06/14 13:09:18;;;;;;;7.60;3.20;;;;;;;;;;5087744;28;20051;-74
2023/06/14 13:11:48;;;;;;;6.22;2.58;;;;;;;;;;5105784;28;20054;-75
2023/06/14 13:14:18;;;;;;;5.57;2.55;;;;;;;;;;5106002;28;20067;-77
2023/06/14 13:16:55;;;;;;;;;;;;;;;;;;5106024;28;20429;-76
2023/06/14 13:19:26;;;;;;;5.47;2.72;;;;;;;;;;5088110;28;19924;-74
2023/06/14 13:21:57;;;;;;;4.38;2.65;;;;;;;;;;5106036;28;20394;-75
2023/06/14 13:24:28;;;;;;;4.30;2.22;;;;;;;;;;5105883;28;20052;-75
2023/06/14 13:26:59;;;;;;;6.97;2.38;;;;;;;;;;5105349;28;20050;-75
2023/06/14 13:29:31;;;;;;;7.95;4.63;;;;;;;;;;5105425;28;20070;-75
2023/06/14 13:32:03;;;;;;;8.75;3.17;;;;;;;;;;5087008;28;20051;-74
2023/06/14 13:34:33;;;;;;;6.63;2.53;;;;;;;;;;5105805;28;20039;-75
2023/06/14 13:37:03;;;;;;;9.00;2.95;;;;;;;;;;5105438;28;20039;-74
2023/06/14 13:39:37;;;;;;;4.00;2.22;;;;;;;;;;5105882;28;20055;-75
2023/06/14 13:42:07;;;;;;;7.65;2.10;;;;;;;;;;5105641;28;20047;-75
2023/06/14 13:44:38;;;;;;;4.75;2.17;;;;;;;;;;5105029;28;20051;-76
2023/06/14 13:47:09;;;;;;;4.53;2.03;;;;;;;;;;5105326;28;20489;-76
2023/06/14 13:49:40;;;;;;;8.00;2.25;;;;;;;;;;5104790;28;20044;-75
2023/06/14 13:52:11;;;;;;;10.40;1.90;;;;;;;;;;5105687;28;20054;-75
2023/06/14 13:54:42;;;;;;;2.85;1.25;;;;;;;;;;5105633;28;20047;-76
2023/06/14 13:57:14;;;;;;;3.58;1.65;;;;;;;;;;5105319;28;20047;-76
2023/06/14 13:59:45;;;;;;;10.32;8.68;;;;;;;;;;5105030;28;20058;-75
2023/06/14 14:02:15;;;;;;;3.28;2.33;;;;;;;;;;5104861;28;20059;-75
2023/06/14 14:04:51;;;;;;;6.05;2.58;;;;;;;;;;5105279;28;20082;-76
2023/06/14 14:07:22;;;;;;;;;;;;;;;;;;5105650;28;20050;-75
2023/06/14 14:09:53;;;;;;;3.50;2.60;;;;;;;;;;5105181;28;19951;-77
2023/06/14 14:12:25;;;;;;;4.63;2.70;;;;;;;;;;5105638;28;20044;-75
2023/06/14 14:14:56;;;;;;;7.80;2.40;;;;;;;;;;5105079;28;20051;-75
2023/06/14 14:17:27;;;;;;;8.52;2.40;;;;;;;;;;5105147;28;20039;-77
2023/06/14 14:19:58;;;;;;;6.57;2.30;;;;;;;;;;5104869;28;21036;-74
2023/06/14 14:22:29;;;;;;;6.35;2.40;;;;;;;;;;5086392;28;20554;-74
2023/06/14 14:24:59;;;;;;;4.38;2.63;;;;;;;;;;5104779;28;20050;-75
2023/06/14 14:27:30;;;;;;;5.18;2.30;;;;;;;;;;5105513;28;20056;-74
2023/06/14 14:30:04;;;;;;;3.75;2.63;;;;;;;;;;5104366;28;20056;-76
2023/06/14 14:32:37;;;;;;;5.15;2.90;;;;;;;;;;5104651;28;20051;-74
2023/06/14 14:35:08;;;;;;;9.93;2.85;;;;;;;;;;5103838;28;20620;-77
2023/06/14 14:37:38;;;;;;;10.98;3.00;;;;;;;;;;5104597;28;20502;-74
2023/06/14 14:40:09;;;;;;;7.82;3.03;;;;;;;;;;5103849;28;20051;-75
2023/06/14 14:42:40;;;;;;;6.13;2.92;;;;;;;;;;5105258;28;20051;-74
2023/06/14 14:45:11;;;;;;;3.42;2.28;;;;;;;;;;5105043;28;20050;-75
2023/06/14 14:47:41;;;;;;;4.90;1.23;;;;;;;;;;5104691;28;20048;-76
2023/06/14 14:50:11;;;;;;;1.90;0.70;;;;;;;;;;5106155;28;20458;-74
2023/06/14 14:52:42;;;;;;;5.30;0.88;;;;;;;;;;5108389;28;20054;-74
2023/06/14 14:55:13;;;;;;;5.35;1.10;;;;;;;;;;5108281;28;20514;-74
2023/06/14 14:57:47;;;;;;;1.95;0.50;;;;;;;;;;5089402;28;20047;-74
2023/06/14 15:00:18;;;;;;;2.95;0.68;;;;;;;;;;5090819;28;20528;-80
2023/06/14 15:02:48;;;;;;;4.05;1.10;;;;;;;;;;5108534;28;20043;-74
2023/06/14 15:05:19;;;;;;;5.60;0.85;;;;;;;;;;5108318;28;20070;-74
2023/06/14 15:07:50;;;;;;;5.25;0.60;;;;;;;;;;5108452;28;20040;-75
2023/06/14 15:10:21;;;;;;;4.03;0.55;;;;;;;;;;5108474;28;20047;-74
2023/06/14 15:12:50;;;;;;;5.07;0.60;;;;;;;;;;5108115;28;20051;-74
2023/06/14 15:15:22;;;;;;;5.72;0.73;;;;;;;;;;5108170;28;20053;-74
2023/06/14 15:17:53;;;;;;;2.13;0.65;;;;;;;;;;5108364;28;20054;-74